Time;durP1;ratioP1;P1;durP2;ratioP2;P2;SDS_P1;SDS_P2;PMS_P1;PMS_P2;Temp;Humidity;BMP_temperature;BMP_pressure;BME280_temperature;BME280_humidity;BME280_pressure;Samples;Min_cycle;Max_cycle;Signal;HPM_P1;HPM_P2
2022/07/22 00:02:14;;;;;;;10.65;4.40;;;17.70;99.90;;;;;;5034895;28;20211;-67
2022/07/22 00:04:42;;;;;;;14.48;5.47;;;;;;;;;;5043163;28;20200;-68
2022/07/22 00:07:09;;;;;;;10.18;4.78;;;17.70;99.90;;;;;;5046281;28;20201;-67
2022/07/22 00:09:35;;;;;;;9.88;4.65;;;17.70;99.90;;;;;;5022474;28;20709;-67
2022/07/22 00:12:02;;;;;;;9.98;5.10;;;17.70;99.90;;;;;;5014614;28;20984;-68
2022/07/22 00:14:29;;;;;;;8.18;4.35;;;17.70;99.90;;;;;;5047208;28;20209;-67
2022/07/22 00:16:56;;;;;;;10.38;5.22;;;17.80;99.90;;;;;;5020531;28;20220;-67
2022/07/22 00:19:24;;;;;;;8.43;4.80;;;17.70;99.90;;;;;;5048935;28;20575;-67
2022/07/22 00:21:51;;;;;;;9.32;4.13;;;17.40;99.90;;;;;;5042649;28;20249;-68
2022/07/22 00:24:18;;;;;;;8.43;4.30;;;17.60;99.90;;;;;;5024311;28;20578;-67
2022/07/22 00:26:45;;;;;;;12.00;4.57;;;17.50;99.90;;;;;;5014652;28;20209;-67
2022/07/22 00:29:12;;;;;;;7.97;4.00;;;17.60;99.90;;;;;;5043224;28;20229;-68
2022/07/22 00:31:39;;;;;;;9.07;3.97;;;17.80;99.90;;;;;;5027149;28;20216;-67
2022/07/22 00:34:06;;;;;;;8.27;3.90;;;17.70;99.90;;;;;;5034275;28;20213;-67
2022/07/22 00:36:34;;;;;;;7.72;4.10;;;17.60;99.90;;;;;;5043767;28;20204;-66
2022/07/22 00:39:01;;;;;;;7.70;3.75;;;17.50;99.90;;;;;;5020838;28;20981;-67
2022/07/22 00:41:28;;;;;;;8.40;3.95;;;17.50;99.90;;;;;;5045402;28;20944;-66
2022/07/22 00:43:58;;;;;;;10.95;3.40;;;17.50;99.90;;;;;;5003196;28;20880;-67
2022/07/22 00:46:26;;;;;;;4.65;3.13;;;20.10;99.90;;;;;;5039376;28;20201;-67
2022/07/22 00:48:53;;;;;;;8.90;3.33;;;17.50;99.90;;;;;;5027767;28;20251;-67
2022/07/22 00:51:21;;;;;;;5.55;3.28;;;17.50;99.90;;;;;;5038588;28;20206;-67
2022/07/22 00:53:50;;;;;;;6.90;3.17;;;17.40;99.90;;;;;;5027215;28;20205;-67
2022/07/22 00:56:18;;;;;;;6.70;2.95;;;17.50;99.90;;;;;;5011959;28;20454;-67
2022/07/22 00:58:46;;;;;;;7.93;3.03;;;17.50;99.90;;;;;;5015284;28;20220;-67
2022/07/22 01:01:14;;;;;;;13.73;3.38;;;17.40;99.90;;;;;;5039179;28;20207;-66
2022/07/22 01:03:41;;;;;;;7.07;2.70;;;17.40;99.90;;;;;;5008895;28;20216;-67
2022/07/22 01:06:08;;;;;;;4.57;3.35;;;17.10;99.90;;;;;;5037104;28;20205;-66
2022/07/22 01:08:35;;;;;;;4.18;2.17;;;17.40;99.90;;;;;;5034643;28;20236;-67
2022/07/22 01:11:12;;;;;;;9.38;2.67;;;17.30;99.90;;;;;;5010713;28;20684;-67
2022/07/22 01:13:39;;;;;;;8.70;2.65;;;17.20;99.90;;;;;;5016704;28;20224;-67
2022/07/22 01:16:08;;;;;;;3.30;2.08;;;17.30;99.90;;;;;;5034713;28;20189;-68
2022/07/22 01:18:35;;;;;;;8.55;2.85;;;17.30;99.90;;;;;;5011175;28;20209;-67
2022/07/22 01:21:03;;;;;;;6.50;2.53;;;17.00;99.90;;;;;;5030832;28;20693;-67
2022/07/22 01:23:30;;;;;;;9.63;3.13;;;17.20;99.90;;;;;;5039995;28;20305;-67
2022/07/22 01:25:57;;;;;;;5.90;2.38;;;17.10;99.90;;;;;;5023394;28;20225;-67
2022/07/22 01:28:25;;;;;;;10.10;2.78;;;17.00;99.90;;;;;;5000903;28;20235;-68
2022/07/22 01:30:52;;;;;;;7.55;2.70;;;17.10;99.90;;;;;;5039010;28;20228;-67
2022/07/22 01:33:19;;;;;;;9.75;2.75;;;;;;;;;;5023200;28;20576;-68
2022/07/22 01:35:46;;;;;;;4.38;2.30;;;17.00;99.90;;;;;;5030961;28;20565;-67
2022/07/22 01:38:15;;;;;;;8.63;2.67;;;17.10;99.90;;;;;;5035150;28;20200;-67
2022/07/22 01:40:44;;;;;;;6.80;2.70;;;17.00;99.90;;;;;;5022432;28;20701;-67
2022/07/22 01:43:11;;;;;;;9.88;2.55;;;17.00;99.90;;;;;;4993931;28;20253;-67
2022/07/22 01:45:38;;;;;;;5.30;2.47;;;17.10;99.90;;;;;;5038466;28;20220;-67
2022/07/22 01:48:06;;;;;;;6.15;2.53;;;17.10;99.90;;;;;;5034322;28;20221;-67
2022/07/22 01:50:32;;;;;;;3.35;2.60;;;17.30;99.90;;;;;;5027876;28;20204;-67
2022/07/22 01:53:00;;;;;;;7.35;2.03;;;;;;;;;;5037227;28;20995;-67
2022/07/22 01:55:28;;;;;;;7.78;2.70;;;17.10;99.90;;;;;;5028721;28;20196;-65
2022/07/22 01:57:54;;;;;;;7.00;2.60;;;17.60;99.90;;;;;;5006663;28;20217;-65
2022/07/22 02:00:21;;;;;;;4.15;2.28;;;17.10;99.90;;;;;;5010488;28;20209;-66
2022/07/22 02:02:48;;;;;;;2.83;1.92;;;16.80;99.90;;;;;;5047528;28;20243;-66
2022/07/22 02:05:15;;;;;;;6.50;2.53;;;16.90;99.90;;;;;;5031144;28;20220;-66
2022/07/22 02:07:42;;;;;;;6.22;2.47;;;16.90;99.90;;;;;;5007640;28;20216;-66
2022/07/22 02:10:09;;;;;;;10.45;1.95;;;16.90;99.90;;;;;;5038127;28;20240;-66
2022/07/22 02:12:38;;;;;;;9.82;2.30;;;16.80;99.90;;;;;;5009259;28;20200;-66
2022/07/22 02:15:06;;;;;;;5.82;2.33;;;16.80;99.90;;;;;;5024971;28;20235;-65
2022/07/22 02:17:33;;;;;;;9.13;2.42;;;16.70;99.90;;;;;;5037348;28;20225;-66
2022/07/22 02:20:00;;;;;;;5.20;1.90;;;17.10;99.90;;;;;;5032014;28;20209;-66
2022/07/22 02:22:27;;;;;;;7.68;2.50;;;16.90;99.90;;;;;;5027489;28;20231;-66
2022/07/22 02:24:54;;;;;;;8.45;2.10;;;16.90;99.90;;;;;;5037274;28;20240;-66
2022/07/22 02:27:21;;;;;;;6.25;2.10;;;17.00;99.90;;;;;;5031364;28;20201;-66
2022/07/22 02:29:49;;;;;;;5.65;2.17;;;17.00;99.90;;;;;;5003908;28;20235;-66
2022/07/22 02:32:16;;;;;;;5.88;1.83;;;17.10;99.90;;;;;;5034398;28;20224;-66
2022/07/22 02:34:42;;;;;;;10.18;2.28;;;17.00;99.90;;;;;;5044339;28;20205;-66
2022/07/22 02:37:09;;;;;;;6.75;2.30;;;16.90;99.90;;;;;;5018186;28;20240;-65
2022/07/22 02:39:36;;;;;;;8.55;2.30;;;16.90;99.90;;;;;;5039888;28;21167;-66
2022/07/22 02:42:03;;;;;;;4.07;2.03;;;16.90;99.90;;;;;;5021683;28;20220;-65
2022/07/22 02:44:30;;;;;;;6.07;2.33;;;;;;;;;;4995884;28;20209;-66
2022/07/22 02:46:58;;;;;;;9.10;2.10;;;17.00;99.90;;;;;;5040388;28;20212;-66
2022/07/22 02:49:25;;;;;;;5.00;2.38;;;16.50;99.90;;;;;;5025229;28;20221;-66
2022/07/22 02:51:52;;;;;;;4.10;2.15;;;17.00;99.90;;;;;;5030734;28;20212;-65
2022/07/22 02:54:19;;;;;;;6.78;2.50;;;17.10;99.90;;;;;;5028688;28;20211;-66
2022/07/22 02:56:45;;;;;;;7.95;2.15;;;17.10;99.90;;;;;;5031055;28;20218;-66
2022/07/22 02:59:12;;;;;;;4.70;1.77;;;17.10;99.90;;;;;;4999185;28;20781;-66
2022/07/22 03:01:39;;;;;;;8.15;2.05;;;17.40;99.90;;;;;;5034223;28;20201;-66
2022/07/22 03:04:07;;;;;;;6.32;2.55;;;17.00;99.90;;;;;;5044182;28;20190;-66
2022/07/22 03:06:34;;;;;;;7.95;2.60;;;16.70;99.90;;;;;;5036167;28;20200;-66
2022/07/22 03:09:01;;;;;;;4.38;1.80;;;16.90;99.90;;;;;;5040750;28;20236;-66
2022/07/22 03:11:28;;;;;;;6.78;2.38;;;17.10;99.90;;;;;;5023545;28;20209;-66
2022/07/22 03:13:55;;;;;;;9.32;2.40;;;20.50;99.90;;;;;;5003284;28;20209;-67
2022/07/22 03:16:22;;;;;;;8.85;2.45;;;16.90;99.90;;;;;;5027476;28;20204;-67
2022/07/22 03:18:48;;;;;;;7.57;2.35;;;17.00;99.90;;;;;;5041882;28;20964;-67
2022/07/22 03:21:17;;;;;;;6.30;2.45;;;16.90;99.90;;;;;;5040647;28;20231;-67
2022/07/22 03:23:43;;;;;;;5.60;2.38;;;17.70;99.90;;;;;;5032243;28;20231;-67
2022/07/22 03:26:10;;;;;;;5.35;2.03;;;17.10;99.90;;;;;;5023138;28;20225;-67
2022/07/22 03:28:37;;;;;;;3.50;2.05;;;17.20;99.90;;;;;;5028699;28;20236;-67
2022/07/22 03:31:04;;;;;;;7.43;2.15;;;17.60;99.90;;;;;;5017493;28;20584;-67
2022/07/22 03:33:31;;;;;;;3.95;2.10;;;13.30;99.90;;;;;;5041775;28;20223;-67
2022/07/22 03:35:58;;;;;;;3.53;2.15;;;17.10;99.90;;;;;;5050404;28;20205;-67
2022/07/22 03:38:26;;;;;;;6.22;2.20;;;17.10;99.90;;;;;;5036729;28;20219;-66
2022/07/22 03:40:53;;;;;;;7.45;2.58;;;16.90;99.90;;;;;;5033307;28;21685;-67
2022/07/22 03:43:20;;;;;;;7.30;2.25;;;17.00;99.90;;;;;;5036378;28;20209;-67
2022/07/22 03:45:46;;;;;;;4.85;1.98;;;19.80;99.90;;;;;;5016361;28;20213;-67
2022/07/22 03:48:13;;;;;;;9.73;2.40;;;17.00;99.90;;;;;;5047746;28;20703;-67
2022/07/22 03:50:40;;;;;;;6.88;2.10;;;16.90;99.90;;;;;;5041266;28;20221;-67
2022/07/22 03:53:07;;;;;;;7.20;2.65;;;16.80;99.90;;;;;;5027089;28;20213;-67
2022/07/22 03:55:35;;;;;;;5.13;2.58;;;16.70;99.90;;;;;;5037706;28;20213;-67
2022/07/22 03:58:02;;;;;;;13.20;2.67;;;16.70;99.90;;;;;;5034011;28;20205;-67
2022/07/22 04:00:29;;;;;;;12.05;3.10;;;16.70;99.90;;;;;;5030191;28;20211;-68
2022/07/22 04:02:56;;;;;;;9.27;2.55;;;16.80;99.90;;;;;;5021325;28;20937;-67
2022/07/22 04:05:23;;;;;;;4.97;2.47;;;16.70;99.90;;;;;;5042080;28;20209;-67
2022/07/22 04:07:49;;;;;;;10.55;2.65;;;16.80;99.90;;;;;;5034198;28;20204;-65
2022/07/22 04:10:16;;;;;;;8.82;2.28;;;16.70;99.90;;;;;;5034134;28;20567;-67
2022/07/22 04:12:44;;;;;;;8.52;2.67;;;16.70;99.90;;;;;;5043099;28;20217;-67
2022/07/22 04:15:11;;;;;;;7.55;2.60;;;16.70;99.90;;;;;;5037679;28;20223;-66
2022/07/22 04:17:38;;;;;;;7.68;2.70;;;16.60;99.90;;;;;;5012908;28;20976;-67
2022/07/22 04:20:06;;;;;;;8.88;2.65;;;16.80;99.90;;;;;;5046822;28;20201;-67
2022/07/22 04:22:33;;;;;;;5.93;2.10;;;16.80;99.90;;;;;;5026696;28;20202;-67
2022/07/22 04:25:00;;;;;;;10.60;2.65;;;16.90;99.90;;;;;;5024089;28;20208;-66
2022/07/22 04:27:27;;;;;;;6.60;2.60;;;16.90;99.90;;;;;;5040699;28;20204;-66
2022/07/22 04:29:55;;;;;;;5.65;2.50;;;16.90;99.90;;;;;;5030664;28;20706;-67
2022/07/22 04:32:22;;;;;;;4.72;2.00;;;16.90;99.90;;;;;;5048810;28;20201;-66
2022/07/22 04:34:49;;;;;;;9.13;2.00;;;16.90;99.90;;;;;;5027103;28;20213;-67
2022/07/22 04:37:16;;;;;;;6.00;2.53;;;16.80;99.90;;;;;;5044610;28;20200;-66
2022/07/22 04:39:43;;;;;;;11.57;3.15;;;16.80;99.90;;;;;;5036806;28;20627;-67
2022/07/22 04:42:10;;;;;;;3.58;1.83;;;16.70;99.90;;;;;;5033881;28;20220;-66
2022/07/22 04:44:36;;;;;;;6.97;2.42;;;16.70;99.90;;;;;;5028921;28;20209;-66
2022/07/22 04:47:05;;;;;;;10.70;2.83;;;19.20;99.90;;;;;;5041494;28;20200;-66
2022/07/22 04:49:32;;;;;;;9.43;2.20;;;16.60;99.90;;;;;;5016402;28;20236;-67
2022/07/22 04:51:58;;;;;;;7.45;2.30;;;16.70;99.90;;;;;;5036541;28;20702;-67
2022/07/22 04:54:26;;;;;;;6.85;1.95;;;;;;;;;;5026812;28;20201;-67
2022/07/22 04:56:52;;;;;;;9.55;2.13;;;16.70;99.90;;;;;;5029508;28;20212;-67
2022/07/22 04:59:19;;;;;;;5.78;2.55;;;16.70;99.90;;;;;;5041111;28;20565;-67
2022/07/22 05:01:46;;;;;;;6.30;2.22;;;16.60;99.90;;;;;;5031043;28;20200;-67
2022/07/22 05:04:14;;;;;;;5.97;2.42;;;16.80;99.90;;;;;;5034727;28;20211;-68
2022/07/22 05:06:41;;;;;;;6.47;2.33;;;16.70;99.90;;;;;;5025399;28;20266;-67
2022/07/22 05:09:08;;;;;;;8.93;2.00;;;16.80;99.90;;;;;;5032856;28;20245;-66
2022/07/22 05:11:35;;;;;;;5.97;2.65;;;16.80;99.90;;;;;;5018887;28;20225;-67
2022/07/22 05:14:02;;;;;;;7.75;2.60;;;16.90;99.90;;;;;;5023777;28;20717;-67
2022/07/22 05:16:29;;;;;;;8.23;2.70;;;17.20;99.90;;;;;;5014210;28;20232;-67
2022/07/22 05:18:56;;;;;;;11.15;2.40;;;17.00;99.90;;;;;;5041551;28;20204;-67
2022/07/22 05:21:24;;;;;;;6.60;2.35;;;17.00;99.90;;;;;;5023896;28;20216;-67
2022/07/22 05:23:51;;;;;;;6.88;2.20;;;17.00;99.90;;;;;;5046287;28;20961;-68
2022/07/22 05:26:17;;;;;;;7.60;2.60;;;17.00;99.90;;;;;;5029433;28;20216;-68
2022/07/22 05:28:44;;;;;;;10.43;2.67;;;17.00;99.90;;;;;;5032744;28;20205;-68
2022/07/22 05:31:11;;;;;;;9.02;2.40;;;17.00;99.90;;;;;;5036282;28;20201;-68
2022/07/22 05:33:38;;;;;;;6.47;2.08;;;17.00;99.10;;;;;;5033630;28;20220;-67
2022/07/22 05:36:06;;;;;;;6.30;2.60;;;16.60;99.30;;;;;;5024561;28;20939;-68
2022/07/22 05:38:34;;;;;;;4.18;2.28;;;16.80;97.80;;;;;;5045804;28;20589;-68
2022/07/22 05:41:02;;;;;;;5.18;2.00;;;16.80;97.20;;;;;;5034555;28;20229;-68
2022/07/22 05:43:29;;;;;;;10.18;2.33;;;17.00;98.20;;;;;;5036317;28;20208;-68
2022/07/22 05:45:57;;;;;;;7.15;2.53;;;16.90;97.10;;;;;;5029080;28;20204;-68
2022/07/22 05:48:23;;;;;;;9.52;2.13;;;16.80;94.40;;;;;;5027402;28;20208;-68
2022/07/22 05:50:50;;;;;;;4.82;1.85;;;17.80;94.30;;;;;;5041299;28;20231;-67
2022/07/22 05:53:17;;;;;;;11.30;2.72;;;16.80;91.10;;;;;;5022630;28;20208;-67
2022/07/22 05:55:45;;;;;;;6.22;2.15;;;16.90;92.00;;;;;;5033671;28;20225;-67
2022/07/22 05:58:12;;;;;;;8.65;3.05;;;16.80;89.20;;;;;;5038651;28;20219;-67
2022/07/22 06:00:40;;;;;;;5.18;2.13;;;16.80;89.50;;;;;;5043902;28;20192;-68
2022/07/22 06:03:06;;;;;;;5.10;1.88;;;16.80;83.00;;;;;;5047132;28;20239;-67
2022/07/22 06:05:35;;;;;;;4.47;1.90;;;16.80;83.10;;;;;;5043790;28;20216;-68
2022/07/22 06:08:02;;;;;;;11.50;2.67;;;16.20;86.40;;;;;;5025258;28;20247;-67
2022/07/22 06:10:29;;;;;;;7.53;2.42;;;16.90;83.40;;;;;;5045109;28;20228;-68
2022/07/22 06:12:57;;;;;;;5.43;1.80;;;16.90;81.60;;;;;;5042008;28;20204;-67
2022/07/22 06:15:24;;;;;;;12.65;2.60;;;16.90;79.20;;;;;;5040711;28;20209;-68
2022/07/22 06:17:51;;;;;;;11.27;2.10;;;17.00;82.20;;;;;;5045078;28;20212;-68
2022/07/22 06:20:17;;;;;;;8.30;2.50;;;16.70;65.70;;;;;;5042555;28;20662;-68
2022/07/22 06:22:44;;;;;;;7.22;2.35;;;15.90;73.10;;;;;;5020159;28;20216;-68
2022/07/22 06:25:11;;;;;;;5.28;1.75;;;17.00;72.60;;;;;;5046578;28;20903;-68
2022/07/22 06:27:38;;;;;;;8.25;2.17;;;16.90;70.70;;;;;;5037790;28;20205;-67
2022/07/22 06:30:08;;;;;;;10.18;2.63;;;17.00;66.20;;;;;;5034474;28;20228;-68
2022/07/22 06:32:35;;;;;;;6.18;1.98;;;16.90;63.50;;;;;;5043472;28;20284;-67
2022/07/22 06:35:02;;;;;;;4.47;2.25;;;17.00;65.40;;;;;;5030478;28;20729;-67
2022/07/22 06:37:29;;;;;;;9.75;2.20;;;17.20;69.00;;;;;;5028334;28;20220;-68
2022/07/22 06:39:56;;;;;;;11.25;2.85;;;17.10;66.70;;;;;;5021143;28;20301;-67
2022/07/22 06:42:23;;;;;;;3.88;1.92;;;17.70;63.80;;;;;;5045968;28;20822;-67
2022/07/22 06:44:51;;;;;;;4.85;2.22;;;17.00;62.00;;;;;;5032794;28;20196;-68
2022/07/22 06:47:19;;;;;;;4.75;1.70;;;17.10;63.00;;;;;;5042145;28;20741;-66
2022/07/22 06:49:46;;;;;;;6.15;2.17;;;16.90;58.50;;;;;;5038847;28;20318;-66
2022/07/22 06:52:13;;;;;;;5.10;2.13;;;17.00;55.80;;;;;;5049747;28;20206;-66
2022/07/22 06:54:40;;;;;;;6.55;2.22;;;16.90;52.40;;;;;;5031604;28;20228;-66
2022/07/22 06:57:06;;;;;;;8.00;3.10;;;16.90;50.40;;;;;;5040870;28;20212;-66
2022/07/22 06:59:33;;;;;;;3.05;1.60;;;17.00;55.00;;;;;;5041401;28;20220;-67
2022/07/22 07:02:00;;;;;;;8.10;2.42;;;17.00;50.80;;;;;;5035089;28;20908;-66
2022/07/22 07:04:28;;;;;;;6.68;2.00;;;16.90;47.10;;;;;;5049358;28;20192;-66
2022/07/22 07:06:55;;;;;;;8.18;2.53;;;19.20;46.40;;;;;;5039835;28;20205;-66
2022/07/22 07:09:22;;;;;;;4.10;2.00;;;17.10;42.50;;;;;;5029241;28;20232;-65
2022/07/22 07:11:49;;;;;;;6.72;2.63;;;16.90;38.50;;;;;;5047982;28;20197;-66
2022/07/22 07:14:15;;;;;;;3.70;2.05;;;13.50;43.30;;;;;;5036689;28;21020;-66
2022/07/22 07:16:42;;;;;;;4.55;2.03;;;17.00;42.80;;;;;;5047728;28;20192;-65
2022/07/22 07:19:09;;;;;;;3.95;1.55;;;16.90;39.00;;;;;;5049330;28;20205;-66
2022/07/22 07:21:37;;;;;;;3.42;1.80;;;17.00;34.00;;;;;;5038678;28;20677;-67
2022/07/22 07:24:04;;;;;;;4.85;1.73;;;17.20;38.40;;;;;;5047227;28;20194;-66
2022/07/22 07:26:31;;;;;;;6.00;1.98;;;18.10;31.60;;;;;;5025780;28;20766;-66
2022/07/22 07:28:58;;;;;;;7.05;1.80;;;17.00;26.00;;;;;;5041224;28;20201;-66
2022/07/22 07:31:25;;;;;;;4.90;1.60;;;17.10;33.20;;;;;;5039096;28;20240;-66
2022/07/22 07:33:51;;;;;;;7.65;1.80;;;17.20;28.90;;;;;;5038699;28;20205;-65
2022/07/22 07:36:18;;;;;;;4.63;1.63;;;16.90;20.60;;;;;;5038936;28;21575;-66
2022/07/22 07:38:46;;;;;;;2.63;1.40;;;17.20;11.80;;;;;;5048983;28;20197;-66
2022/07/22 07:41:14;;;;;;;5.85;1.70;;;17.10;14.80;;;;;;5026453;28;21213;-66
2022/07/22 07:43:41;;;;;;;3.08;1.55;;;17.10;14.60;;;;;;5048257;28;20201;-65
2022/07/22 07:46:08;;;;;;;3.65;1.60;;;17.10;13.20;;;;;;5019381;28;20205;-65
2022/07/22 07:48:34;;;;;;;5.03;1.52;;;17.40;15.90;;;;;;5044003;28;20205;-65
2022/07/22 07:51:01;;;;;;;3.33;1.38;;;17.20;13.10;;;;;;5042811;28;20612;-66
2022/07/22 07:53:28;;;;;;;5.13;1.33;;;17.30;14.10;;;;;;5035483;28;20216;-66
2022/07/22 07:55:56;;;;;;;2.95;1.75;;;17.10;6.40;;;;;;5046828;28;20231;-65
2022/07/22 07:58:23;;;;;;;2.05;1.38;;;17.20;18.80;;;;;;5023960;28;20239;-65
2022/07/22 08:00:50;;;;;;;4.65;2.03;;;;;;;;;;5035514;28;20209;-65
2022/07/22 08:03:17;;;;;;;3.92;1.80;;;17.30;25.90;;;;;;5047362;28;20204;-65
2022/07/22 08:05:44;;;;;;;5.10;1.55;;;19.50;28.50;;;;;;5026119;28;20221;-65
2022/07/22 08:08:11;;;;;;;3.35;1.48;;;19.70;26.90;;;;;;5024983;28;20666;-65
2022/07/22 08:10:38;;;;;;;8.75;2.20;;;17.20;24.10;;;;;;5030588;28;20228;-65
2022/07/22 08:13:07;;;;;;;6.78;1.88;;;17.40;21.20;;;;;;5021995;28;20215;-65
2022/07/22 08:15:34;;;;;;;3.95;1.95;;;17.30;21.90;;;;;;5028068;28;20208;-65
2022/07/22 08:18:00;;;;;;;5.03;1.80;;;17.20;20.10;;;;;;5044265;28;20217;-65
2022/07/22 08:20:28;;;;;;;6.95;1.75;;;17.10;25.40;;;;;;5028524;28;20678;-65
2022/07/22 08:22:55;;;;;;;5.57;1.85;;;17.40;29.10;;;;;;5031144;28;20223;-66
2022/07/22 08:25:23;;;;;;;8.15;1.90;;;17.60;21.30;;;;;;5029816;28;20213;-65
2022/07/22 08:27:50;;;;;;;5.22;1.67;;;17.30;18.90;;;;;;5013054;28;20781;-65
2022/07/22 08:30:19;;;;;;;6.53;1.88;;;17.50;18.70;;;;;;5034636;28;20288;-65
2022/07/22 08:32:46;;;;;;;7.20;2.17;;;17.10;19.80;;;;;;5026310;28;20316;-65
2022/07/22 08:35:13;;;;;;;6.97;1.83;;;17.00;20.00;;;;;;5038439;28;20205;-65
2022/07/22 08:37:40;;;;;;;9.65;1.67;;;17.20;18.00;;;;;;5042679;28;20516;-64
2022/07/22 08:40:08;;;;;;;5.88;1.85;;;17.10;14.10;;;;;;5024525;28;20229;-65
2022/07/22 08:42:39;;;;;;;5.82;2.05;;;17.30;17.30;;;;;;5025175;28;20201;-65
2022/07/22 08:45:06;;;;;;;5.60;1.80;;;17.10;21.20;;;;;;4998279;28;20636;-65
2022/07/22 08:47:34;;;;;;;4.30;1.65;;;17.20;30.00;;;;;;5028861;28;20201;-65
2022/07/22 08:50:02;;;;;;;3.13;1.40;;;17.20;27.30;;;;;;5028334;28;20220;-65
2022/07/22 08:52:29;;;;;;;3.90;1.60;;;17.20;16.50;;;;;;5039288;28;20223;-64
2022/07/22 08:54:56;;;;;;;7.15;1.55;;;;;;;;;;5031698;28;20740;-65
2022/07/22 08:57:23;;;;;;;3.85;1.60;;;17.20;11.90;;;;;;5032471;28;20205;-65
2022/07/22 08:59:51;;;;;;;4.05;1.80;;;17.30;1.00;;;;;;5010358;28;20209;-64
2022/07/22 09:02:19;;;;;;;1.80;1.15;;;17.30;4.00;;;;;;5044247;28;20217;-65
2022/07/22 09:04:56;;;;;;;4.30;1.40;;;18.50;4.70;;;;;;5031780;28;20941;-64
2022/07/22 09:07:28;;;;;;;4.72;1.70;;;17.40;1.00;;;;;;5034024;28;20334;-65
2022/07/22 09:09:55;;;;;;;3.80;1.63;;;17.40;1.00;;;;;;5035970;28;20228;-66
2022/07/22 09:12:22;;;;;;;5.47;1.73;;;17.40;1.40;;;;;;5040347;28;20197;-65
2022/07/22 09:14:52;;;;;;;7.03;1.55;;;18.20;1.00;;;;;;5004123;28;20744;-66
2022/07/22 09:17:27;;;;;;;8.55;2.38;;;17.40;1.00;;;;;;5044585;28;20650;-66
2022/07/22 09:19:56;;;;;;;3.40;1.50;;;17.50;1.00;;;;;;5013938;28;20208;-66
2022/07/22 09:22:35;;;;;;;5.82;1.33;;;17.40;1.00;;;;;;5037538;28;21029;-66
2022/07/22 09:25:27;;;;;;;5.93;1.48;;;17.20;1.00;;;;;;5019063;22;20686;-65
2022/07/22 09:27:56;;;;;;;6.05;1.40;;;17.30;1.00;;;;;;5024551;28;20259;-66
2022/07/22 09:30:27;;;;;;;4.55;1.15;;;17.20;1.00;;;;;;4998390;28;20225;-68
2022/07/22 09:32:56;;;;;;;6.22;1.50;;;17.50;1.00;;;;;;5025175;28;20202;-64
2022/07/22 09:35:25;;;;;;;2.08;1.30;;;17.50;1.00;;;;;;5021367;28;20583;-65
2022/07/22 09:37:54;;;;;;;4.05;1.88;;;17.20;1.00;;;;;;5028855;28;20828;-66
2022/07/22 09:40:23;;;;;;;2.88;1.30;;;17.50;1.00;;;;;;5021809;28;20205;-64
2022/07/22 09:42:53;;;;;;;4.15;1.30;;;17.50;1.00;;;;;;5023564;28;20212;-67
2022/07/22 09:45:21;;;;;;;3.83;1.77;;;17.50;1.00;;;;;;4996211;28;20209;-66
2022/07/22 09:47:50;;;;;;;7.65;1.92;;;17.50;1.00;;;;;;4998428;28;20205;-66
2022/07/22 09:50:23;;;;;;;4.28;1.40;;;17.80;1.00;;;;;;4999372;28;20217;-65
2022/07/22 09:52:53;;;;;;;3.55;1.50;;;17.60;1.00;;;;;;5010268;28;20699;-64
2022/07/22 09:55:22;;;;;;;5.20;1.55;;;17.60;1.00;;;;;;5014279;28;21123;-65
2022/07/22 09:57:50;;;;;;;2.80;1.48;;;17.60;1.00;;;;;;5022883;28;20201;-64
2022/07/22 10:00:19;;;;;;;4.28;1.70;;;17.60;1.00;;;;;;5011267;22;20236;-65
2022/07/22 10:02:48;;;;;;;6.07;1.45;;;17.70;1.00;;;;;;4991902;28;20221;-66
2022/07/22 10:05:16;;;;;;;3.30;1.65;;;17.40;1.00;;;;;;5001780;28;20205;-66
2022/07/22 10:07:45;;;;;;;2.13;1.08;;;17.70;1.00;;;;;;4997522;28;20218;-65
2022/07/22 10:10:15;;;;;;;3.88;1.70;;;17.70;1.00;;;;;;5019496;28;20255;-65
2022/07/22 10:12:43;;;;;;;3.30;1.38;;;17.80;1.00;;;;;;5016832;28;20308;-65
2022/07/22 10:15:12;;;;;;;3.47;1.20;;;17.70;1.00;;;;;;5011608;28;20205;-65
2022/07/22 10:17:43;;;;;;;8.55;1.50;;;17.70;1.00;;;;;;5000869;28;20819;-66
2022/07/22 10:20:11;;;;;;;1.30;1.20;;;17.90;1.00;;;;;;5009177;28;20229;-65
2022/07/22 10:22:50;;;;;;;3.42;1.52;;;17.90;1.00;;;;;;5005439;28;20607;-66
2022/07/22 10:25:20;;;;;;;4.63;1.13;;;17.80;1.00;;;;;;5023773;28;20216;-65
2022/07/22 10:27:48;;;;;;;5.35;1.63;;;17.70;1.00;;;;;;5011324;28;20201;-65
2022/07/22 10:30:17;;;;;;;3.80;1.45;;;17.60;1.00;;;;;;4999921;28;20209;-65
2022/07/22 10:32:44;;;;;;;3.30;1.23;;;17.60;1.00;;;;;;5014049;28;20229;-65
2022/07/22 10:35:25;;;;;;;5.35;1.83;;;17.60;1.00;;;;;;4985151;28;21167;-65
2022/07/22 10:38:01;;;;;;;6.97;1.50;;;17.60;1.00;;;;;;5009094;28;20205;-65
2022/07/22 10:40:30;;;;;;;4.72;1.40;;;17.50;1.00;;;;;;5020586;28;20520;-65
2022/07/22 10:43:10;;;;;;;3.72;1.27;;;17.70;1.00;;;;;;5003273;28;20225;-64
2022/07/22 10:45:43;;;;;;;3.05;1.30;;;17.80;1.00;;;;;;5003239;28;20225;-63
2022/07/22 10:48:11;;;;;;;7.15;1.55;;;17.70;1.00;;;;;;5018196;28;20227;-65
2022/07/22 10:51:07;;;;;;;2.05;1.20;;;17.80;1.00;;;;;;4990486;28;20302;-64
2022/07/22 10:53:42;;;;;;;4.50;1.10;;;17.80;1.00;;;;;;5022836;28;20212;-65
2022/07/22 10:56:29;;;;;;;3.17;1.27;;;18.00;1.00;;;;;;5002859;28;20236;-64
2022/07/22 10:59:10;;;;;;;4.47;1.52;;;18.00;1.00;;;;;;5023322;28;20202;-66
2022/07/22 11:01:39;;;;;;;6.05;1.25;;;17.90;1.00;;;;;;5010226;28;20283;-64
2022/07/22 11:04:12;;;;;;;4.03;1.13;;;18.10;1.00;;;;;;5015015;28;20208;-65
2022/07/22 11:06:39;;;;;;;5.72;1.50;;;18.10;1.00;;;;;;4982433;28;20316;-64
2022/07/22 11:09:08;;;;;;;5.45;1.40;;;18.00;1.00;;;;;;5016310;28;21323;-64
2022/07/22 11:11:42;;;;;;;2.88;1.42;;;18.10;99.90;;;;;;5020319;28;20604;-64
2022/07/22 11:14:17;;;;;;;10.45;1.52;;;18.10;99.90;;;;;;5024477;28;20201;-64
2022/07/22 11:16:45;;;;;;;5.57;1.17;;;18.20;99.90;;;;;;5010369;28;20231;-65
2022/07/22 11:19:12;;;;;;;5.03;1.40;;;18.10;99.90;;;;;;5017580;28;20213;-63
2022/07/22 11:21:39;;;;;;;4.80;1.30;;;18.10;99.90;;;;;;4983885;28;20210;-64
2022/07/22 11:24:09;;;;;;;2.45;0.95;;;17.90;99.90;;;;;;5007677;28;20216;-64
2022/07/22 11:26:41;;;;;;;3.92;1.48;;;18.20;99.90;;;;;;5017076;28;20822;-64
2022/07/22 11:29:09;;;;;;;2.85;1.30;;;18.10;99.90;;;;;;5023511;28;20584;-64
2022/07/22 11:31:36;;;;;;;4.05;1.30;;;18.00;99.90;;;;;;5022357;28;20220;-64
2022/07/22 11:34:11;;;;;;;4.00;1.42;;;18.20;99.90;;;;;;5009254;28;20202;-65
2022/07/22 11:36:41;;;;;;;3.42;1.50;;;18.20;99.90;;;;;;5056181;22;20610;-64
2022/07/22 11:39:09;;;;;;;2.20;1.20;;;18.20;99.90;;;;;;5048221;28;20211;-65
2022/07/22 11:41:38;;;;;;;3.45;1.42;;;18.40;99.90;;;;;;5033256;28;20360;-64
2022/07/22 11:44:06;;;;;;;2.78;1.38;;;18.30;99.90;;;;;;5040503;28;20220;-64
2022/07/22 11:46:37;;;;;;;5.85;2.53;;;18.50;99.90;;;;;;5041223;28;20204;-64
2022/07/22 11:49:04;;;;;;;6.07;1.48;;;18.50;99.90;;;;;;5039974;28;20217;-64
2022/07/22 11:51:33;;;;;;;2.78;1.33;;;20.90;99.90;;;;;;5034520;28;21675;-64
2022/07/22 11:54:00;;;;;;;4.70;1.40;;;;;;;;;;5043925;28;20239;-64
2022/07/22 11:56:27;;;;;;;10.52;1.83;;;18.60;99.90;;;;;;5012486;22;20239;-64
2022/07/22 11:58:56;;;;;;;5.50;1.20;;;18.60;99.90;;;;;;4937548;28;20221;-64
2022/07/22 12:01:25;;;;;;;2.65;1.45;;;18.60;99.90;;;;;;4903157;28;20958;-64
2022/07/22 12:03:55;;;;;;;4.88;2.13;;;18.60;99.90;;;;;;4920526;28;20224;-64
2022/07/22 12:06:23;;;;;;;4.78;1.10;;;18.40;99.90;;;;;;4941427;28;20199;-63
2022/07/22 12:08:53;;;;;;;4.93;1.67;;;18.60;99.90;;;;;;4899590;28;20251;-64
2022/07/22 12:11:22;;;;;;;7.35;1.38;;;18.50;99.90;;;;;;4936884;28;20232;-63
2022/07/22 12:13:51;;;;;;;6.70;1.55;;;18.50;99.90;;;;;;4931731;28;20347;-63
2022/07/22 12:16:22;;;;;;;4.50;1.45;;;18.50;99.90;;;;;;4911970;28;20697;-63
2022/07/22 12:18:57;;;;;;;9.25;1.73;;;18.60;99.90;;;;;;4922631;28;20745;-64
2022/07/22 12:21:26;;;;;;;4.15;1.50;;;18.50;99.90;;;;;;4923618;28;20207;-63
2022/07/22 12:23:56;;;;;;;5.32;1.25;;;18.50;99.90;;;;;;4886845;28;20212;-63
2022/07/22 12:26:47;;;;;;;4.35;1.45;;;18.50;99.90;;;;;;4926050;28;20831;-64
2022/07/22 12:29:20;;;;;;;8.98;1.50;;;18.40;99.90;;;;;;4934948;28;20588;-64
2022/07/22 12:31:50;;;;;;;4.93;1.70;;;18.50;99.90;;;;;;4917949;28;20231;-64
2022/07/22 12:34:18;;;;;;;1.65;1.17;;;18.50;99.90;;;;;;4929001;28;20238;-64
2022/07/22 12:36:47;;;;;;;7.90;1.80;;;18.50;99.90;;;;;;4933836;28;20599;-65
2022/07/22 12:39:19;;;;;;;6.28;1.83;;;18.60;99.90;;;;;;4905555;28;20228;-65
2022/07/22 12:41:49;;;;;;;3.22;1.30;;;16.00;99.90;;;;;;4917093;28;20215;-64
2022/07/22 12:44:18;;;;;;;3.63;1.30;;;18.70;99.90;;;;;;4934056;28;20278;-64
2022/07/22 12:46:48;;;;;;;2.35;1.20;;;20.40;99.90;;;;;;4916032;28;20230;-64
2022/07/22 12:49:17;;;;;;;2.47;1.15;;;20.50;99.90;;;;;;4920247;28;20662;-63
2022/07/22 12:51:58;;;;;;;4.95;1.45;;;18.70;99.90;;;;;;4921964;28;20258;-63
2022/07/22 12:54:25;;;;;;;9.38;3.40;;;18.70;99.90;;;;;;4904133;28;20857;-64
2022/07/22 12:56:52;;;;;;;6.80;1.77;;;18.90;99.90;;;;;;4907379;28;20247;-64